CheckWX is a tool to help pilots better visualize weather data.  It is not intended as a substitute for an official pre-flight weather briefing.

19:21:22 UTC

PATO METAR
Portage Glacier Airport
Portage, Alaska, USA
Current

17 mins ago

PATO 271904Z AUTO 27003KT 1/2SM SN VV005 M17/M21 A2926 RMK AO2 P0000 T11671206 TSNO
Observed
Jan-27 @ 19:04 UTC
Wind
  • 270° at 3 KTS
Visibility
1/2 SM
Flight Rules
LIFR
Conditions
Snow
Cloud Levels
  • Vertical visibility at 500' AGL
Temperature
-17°C / 1°F
Dewpoint
-21°C / -6°F
Humidity
71%
Altimeter
29.26" Hg
Pressure
990.82 hPa
Current Rain
0.01"
Previous

28 mins ago

PATO 271853Z AUTO 00000KT 1/4SM +SN VV004 M17/M21 A2926 RMK AO2 SLP910 P0000 T11721206 TSNO
Observed
Jan-27 @ 18:53 UTC
Visibility
1/4 SM
Flight Rules
LIFR
Conditions
Heavy Snow
Cloud Levels
  • Vertical visibility at 400' AGL
Temperature
-17°C / 1°F
Dewpoint
-21°C / -6°F
Humidity
71%
Altimeter
29.26" Hg
Pressure
990.82 hPa
Current Rain
0.01"
Previous

35 mins ago

PATO 271846Z AUTO VRB03KT 1/4SM +SN VV004 M17/M21 A2926 RMK AO2 P0000 T11671206 TSNO
Observed
Jan-27 @ 18:46 UTC
Wind
  • Variable at 3 KTS
Visibility
1/4 SM
Flight Rules
LIFR
Conditions
Heavy Snow
Cloud Levels
  • Vertical visibility at 400' AGL
Temperature
-17°C / 1°F
Dewpoint
-21°C / -6°F
Humidity
71%
Altimeter
29.26" Hg
Pressure
990.82 hPa
Current Rain
0.01"